sensor_id;sensor_type;location;lat;lon;timestamp;temperature;humidity
16384;DHT22;8301;51.440;6.610;2022-08-21T00:00:03;16.40;99.90
16384;DHT22;8301;51.440;6.610;2022-08-21T00:02:30;16.40;99.90
16384;DHT22;8301;51.440;6.610;2022-08-21T00:04:56;16.30;99.90
16384;DHT22;8301;51.440;6.610;2022-08-21T00:07:23;16.30;99.90
16384;DHT22;8301;51.440;6.610;2022-08-21T00:09:52;16.30;99.90
16384;DHT22;8301;51.440;6.610;2022-08-21T00:12:19;16.30;99.90
16384;DHT22;8301;51.440;6.610;2022-08-21T00:14:46;16.30;99.90
16384;DHT22;8301;51.440;6.610;2022-08-21T00:17:13;16.20;99.90
16384;DHT22;8301;51.440;6.610;2022-08-21T00:19:40;16.20;99.90
16384;DHT22;8301;51.440;6.610;2022-08-21T00:22:07;16.10;99.90
16384;DHT22;8301;51.440;6.610;2022-08-21T00:24:35;16.00;99.90
16384;DHT22;8301;51.440;6.610;2022-08-21T00:27:02;16.00;99.90
16384;DHT22;8301;51.440;6.610;2022-08-21T00:29:29;15.90;99.90
16384;DHT22;8301;51.440;6.610;2022-08-21T00:31:56;15.90;99.90
16384;DHT22;8301;51.440;6.610;2022-08-21T00:34:25;15.80;99.90
16384;DHT22;8301;51.440;6.610;2022-08-21T00:36:56;15.90;99.90
16384;DHT22;8301;51.440;6.610;2022-08-21T00:41:52;15.60;99.90
16384;DHT22;8301;51.440;6.610;2022-08-21T00:44:19;15.60;99.90
16384;DHT22;8301;51.440;6.610;2022-08-21T00:46:46;15.60;99.90
16384;DHT22;8301;51.440;6.610;2022-08-21T00:49:13;15.60;99.90
16384;DHT22;8301;51.440;6.610;2022-08-21T00:51:50;15.40;99.90
16384;DHT22;8301;51.440;6.610;2022-08-21T00:54:14;15.40;99.90
16384;DHT22;8301;51.440;6.610;2022-08-21T00:56:42;15.40;99.90
16384;DHT22;8301;51.440;6.610;2022-08-21T00:59:08;15.40;99.90
16384;DHT22;8301;51.440;6.610;2022-08-21T01:01:36;15.40;99.90
16384;DHT22;8301;51.440;6.610;2022-08-21T01:04:03;15.30;99.90
16384;DHT22;8301;51.440;6.610;2022-08-21T01:06:31;15.30;99.90
16384;DHT22;8301;51.440;6.610;2022-08-21T01:08:58;15.20;99.90
16384;DHT22;8301;51.440;6.610;2022-08-21T01:11:25;15.10;99.90
16384;DHT22;8301;51.440;6.610;2022-08-21T01:13:51;15.10;99.90
16384;DHT22;8301;51.440;6.610;2022-08-21T01:16:19;15.10;99.90
16384;DHT22;8301;51.440;6.610;2022-08-21T01:18:46;15.00;99.90
16384;DHT22;8301;51.440;6.610;2022-08-21T01:21:16;15.00;99.90
16384;DHT22;8301;51.440;6.610;2022-08-21T01:23:43;14.90;99.90
16384;DHT22;8301;51.440;6.610;2022-08-21T01:26:12;14.90;99.90
16384;DHT22;8301;51.440;6.610;2022-08-21T01:28:46;14.90;99.90
16384;DHT22;8301;51.440;6.610;2022-08-21T01:31:08;14.80;99.90
16384;DHT22;8301;51.440;6.610;2022-08-21T01:33:36;14.80;99.90
16384;DHT22;8301;51.440;6.610;2022-08-21T01:36:03;14.70;99.90
16384;DHT22;8301;51.440;6.610;2022-08-21T01:38:36;14.70;99.90
16384;DHT22;8301;51.440;6.610;2022-08-21T01:41:14;14.70;99.90
16384;DHT22;8301;51.440;6.610;2022-08-21T01:43:41;14.70;99.90
16384;DHT22;8301;51.440;6.610;2022-08-21T01:46:09;14.70;99.90
16384;DHT22;8301;51.440;6.610;2022-08-21T01:48:36;14.50;99.90
16384;DHT22;8301;51.440;6.610;2022-08-21T01:51:05;14.40;99.90
16384;DHT22;8301;51.440;6.610;2022-08-21T01:53:32;14.40;99.90
16384;DHT22;8301;51.440;6.610;2022-08-21T01:56:01;14.40;99.90
16384;DHT22;8301;51.440;6.610;2022-08-21T01:58:28;14.40;99.90
16384;DHT22;8301;51.440;6.610;2022-08-21T02:00:55;14.40;99.90
16384;DHT22;8301;51.440;6.610;2022-08-21T02:03:23;14.30;99.90
16384;DHT22;8301;51.440;6.610;2022-08-21T02:05:49;14.30;99.90
16384;DHT22;8301;51.440;6.610;2022-08-21T02:08:16;14.30;99.90
16384;DHT22;8301;51.440;6.610;2022-08-21T02:10:43;14.30;99.90
16384;DHT22;8301;51.440;6.610;2022-08-21T02:13:12;14.30;99.90
16384;DHT22;8301;51.440;6.610;2022-08-21T02:15:38;14.30;99.90
16384;DHT22;8301;51.440;6.610;2022-08-21T02:18:05;14.30;99.90
16384;DHT22;8301;51.440;6.610;2022-08-21T02:20:34;14.30;99.90
16384;DHT22;8301;51.440;6.610;2022-08-21T02:23:01;14.30;99.90
16384;DHT22;8301;51.440;6.610;2022-08-21T02:25:28;14.30;99.90
16384;DHT22;8301;51.440;6.610;2022-08-21T02:27:56;14.30;99.90
16384;DHT22;8301;51.440;6.610;2022-08-21T02:30:28;14.30;99.90
16384;DHT22;8301;51.440;6.610;2022-08-21T02:32:54;14.30;99.90
16384;DHT22;8301;51.440;6.610;2022-08-21T02:35:21;14.30;99.90
16384;DHT22;8301;51.440;6.610;2022-08-21T02:37:51;14.30;99.90
16384;DHT22;8301;51.440;6.610;2022-08-21T02:40:18;14.30;99.90
16384;DHT22;8301;51.440;6.610;2022-08-21T02:42:46;14.30;99.90
16384;DHT22;8301;51.440;6.610;2022-08-21T02:45:13;14.30;99.90
16384;DHT22;8301;51.440;6.610;2022-08-21T02:47:40;14.30;99.90
16384;DHT22;8301;51.440;6.610;2022-08-21T02:50:07;14.30;99.90
16384;DHT22;8301;51.440;6.610;2022-08-21T02:52:34;14.30;99.90
16384;DHT22;8301;51.440;6.610;2022-08-21T02:55:01;14.30;99.90
16384;DHT22;8301;51.440;6.610;2022-08-21T02:57:28;14.20;99.90
16384;DHT22;8301;51.440;6.610;2022-08-21T02:59:58;14.10;99.90
16384;DHT22;8301;51.440;6.610;2022-08-21T03:02:25;14.00;99.90
16384;DHT22;8301;51.440;6.610;2022-08-21T03:04:53;14.10;99.90
16384;DHT22;8301;51.440;6.610;2022-08-21T03:07:20;14.00;99.90
16384;DHT22;8301;51.440;6.610;2022-08-21T03:09:48;14.00;99.90
16384;DHT22;8301;51.440;6.610;2022-08-21T03:12:15;14.00;99.90
16384;DHT22;8301;51.440;6.610;2022-08-21T03:14:42;14.00;99.90
16384;DHT22;8301;51.440;6.610;2022-08-21T03:17:09;14.00;99.90
16384;DHT22;8301;51.440;6.610;2022-08-21T03:19:36;13.90;99.90
16384;DHT22;8301;51.440;6.610;2022-08-21T03:22:03;13.90;99.90
16384;DHT22;8301;51.440;6.610;2022-08-21T03:24:29;13.80;99.90
16384;DHT22;8301;51.440;6.610;2022-08-21T03:26:56;13.80;99.90
16384;DHT22;8301;51.440;6.610;2022-08-21T03:29:23;13.70;99.90
16384;DHT22;8301;51.440;6.610;2022-08-21T03:31:50;13.80;99.90
16384;DHT22;8301;51.440;6.610;2022-08-21T03:34:21;13.80;99.90
16384;DHT22;8301;51.440;6.610;2022-08-21T03:36:54;13.80;99.90
16384;DHT22;8301;51.440;6.610;2022-08-21T03:39:23;13.80;99.90
16384;DHT22;8301;51.440;6.610;2022-08-21T03:41:50;13.70;99.90
16384;DHT22;8301;51.440;6.610;2022-08-21T03:44:16;13.70;99.90
16384;DHT22;8301;51.440;6.610;2022-08-21T03:46:43;13.70;99.90
16384;DHT22;8301;51.440;6.610;2022-08-21T03:49:10;13.80;99.90
16384;DHT22;8301;51.440;6.610;2022-08-21T03:51:47;13.70;99.90
16384;DHT22;8301;51.440;6.610;2022-08-21T03:54:14;13.70;99.90
16384;DHT22;8301;51.440;6.610;2022-08-21T03:56:42;13.60;99.90
16384;DHT22;8301;51.440;6.610;2022-08-21T03:59:09;13.60;99.90
16384;DHT22;8301;51.440;6.610;2022-08-21T04:01:53;13.70;99.90
16384;DHT22;8301;51.440;6.610;2022-08-21T04:04:22;13.70;99.90
16384;DHT22;8301;51.440;6.610;2022-08-21T04:06:49;13.70;99.90
16384;DHT22;8301;51.440;6.610;2022-08-21T04:09:16;13.80;99.90
16384;DHT22;8301;51.440;6.610;2022-08-21T04:11:43;13.80;99.90
16384;DHT22;8301;51.440;6.610;2022-08-21T04:14:12;13.80;99.90
16384;DHT22;8301;51.440;6.610;2022-08-21T04:16:40;13.90;99.90
16384;DHT22;8301;51.440;6.610;2022-08-21T04:19:07;13.90;99.90
16384;DHT22;8301;51.440;6.610;2022-08-21T04:21:37;13.90;99.90
16384;DHT22;8301;51.440;6.610;2022-08-21T04:24:05;13.90;99.90
16384;DHT22;8301;51.440;6.610;2022-08-21T04:26:33;13.90;99.90
16384;DHT22;8301;51.440;6.610;2022-08-21T04:29:01;13.90;99.90
16384;DHT22;8301;51.440;6.610;2022-08-21T04:31:27;13.90;99.90
16384;DHT22;8301;51.440;6.610;2022-08-21T04:33:57;13.90;99.90
16384;DHT22;8301;51.440;6.610;2022-08-21T04:36:24;13.90;99.90
16384;DHT22;8301;51.440;6.610;2022-08-21T04:38:57;13.90;99.90
16384;DHT22;8301;51.440;6.610;2022-08-21T04:41:24;13.90;99.90
16384;DHT22;8301;51.440;6.610;2022-08-21T04:43:51;13.90;99.90
16384;DHT22;8301;51.440;6.610;2022-08-21T04:46:18;13.90;99.90
16384;DHT22;8301;51.440;6.610;2022-08-21T04:48:44;13.90;99.90
16384;DHT22;8301;51.440;6.610;2022-08-21T04:51:13;13.90;99.90
16384;DHT22;8301;51.440;6.610;2022-08-21T04:53:44;13.90;99.90
16384;DHT22;8301;51.440;6.610;2022-08-21T04:56:10;13.90;99.90
16384;DHT22;8301;51.440;6.610;2022-08-21T04:58:42;14.00;99.90
16384;DHT22;8301;51.440;6.610;2022-08-21T05:01:11;14.00;99.90
16384;DHT22;8301;51.440;6.610;2022-08-21T05:03:42;14.00;99.90
16384;DHT22;8301;51.440;6.610;2022-08-21T05:06:10;14.00;99.90
16384;DHT22;8301;51.440;6.610;2022-08-21T05:11:09;14.10;99.90
16384;DHT22;8301;51.440;6.610;2022-08-21T05:13:36;14.10;99.90
16384;DHT22;8301;51.440;6.610;2022-08-21T05:16:04;14.10;99.90
16384;DHT22;8301;51.440;6.610;2022-08-21T05:18:31;14.20;99.90
16384;DHT22;8301;51.440;6.610;2022-08-21T05:20:57;14.20;99.90
16384;DHT22;8301;51.440;6.610;2022-08-21T05:23:24;14.20;99.90
16384;DHT22;8301;51.440;6.610;2022-08-21T05:26:00;14.30;99.90
16384;DHT22;8301;51.440;6.610;2022-08-21T05:28:27;14.30;99.90
16384;DHT22;8301;51.440;6.610;2022-08-21T05:30:54;14.40;99.90
16384;DHT22;8301;51.440;6.610;2022-08-21T05:33:21;14.50;99.90
16384;DHT22;8301;51.440;6.610;2022-08-21T05:35:51;14.60;99.90
16384;DHT22;8301;51.440;6.610;2022-08-21T05:38:22;14.70;99.90
16384;DHT22;8301;51.440;6.610;2022-08-21T05:40:51;14.80;99.90
16384;DHT22;8301;51.440;6.610;2022-08-21T05:43:17;14.90;99.90
16384;DHT22;8301;51.440;6.610;2022-08-21T05:45:44;15.10;99.90
16384;DHT22;8301;51.440;6.610;2022-08-21T05:48:12;15.10;99.90
16384;DHT22;8301;51.440;6.610;2022-08-21T05:50:40;15.30;99.90
16384;DHT22;8301;51.440;6.610;2022-08-21T05:53:09;15.30;99.90
16384;DHT22;8301;51.440;6.610;2022-08-21T05:55:36;15.40;99.90
16384;DHT22;8301;51.440;6.610;2022-08-21T05:58:08;15.50;99.90
16384;DHT22;8301;51.440;6.610;2022-08-21T06:00:34;15.60;99.90
16384;DHT22;8301;51.440;6.610;2022-08-21T06:03:02;15.70;99.90
16384;DHT22;8301;51.440;6.610;2022-08-21T06:05:35;15.80;99.90
16384;DHT22;8301;51.440;6.610;2022-08-21T06:08:03;15.90;99.90
16384;DHT22;8301;51.440;6.610;2022-08-21T06:10:31;16.00;99.90
16384;DHT22;8301;51.440;6.610;2022-08-21T06:12:59;15.90;99.90
16384;DHT22;8301;51.440;6.610;2022-08-21T06:15:40;16.00;99.90
16384;DHT22;8301;51.440;6.610;2022-08-21T06:18:09;16.10;99.90
16384;DHT22;8301;51.440;6.610;2022-08-21T06:20:36;16.20;99.90
16384;DHT22;8301;51.440;6.610;2022-08-21T06:23:05;16.20;99.90
16384;DHT22;8301;51.440;6.610;2022-08-21T06:25:33;16.30;99.90
16384;DHT22;8301;51.440;6.610;2022-08-21T06:28:06;16.30;99.90
16384;DHT22;8301;51.440;6.610;2022-08-21T06:30:34;16.30;99.90
16384;DHT22;8301;51.440;6.610;2022-08-21T06:33:02;16.40;99.90
16384;DHT22;8301;51.440;6.610;2022-08-21T06:35:31;16.40;99.90
16384;DHT22;8301;51.440;6.610;2022-08-21T06:38:00;16.50;99.90
16384;DHT22;8301;51.440;6.610;2022-08-21T06:40:31;16.60;99.90
16384;DHT22;8301;51.440;6.610;2022-08-21T06:43:08;16.60;99.90
16384;DHT22;8301;51.440;6.610;2022-08-21T06:45:36;16.60;99.90
16384;DHT22;8301;51.440;6.610;2022-08-21T06:48:03;16.70;99.90
16384;DHT22;8301;51.440;6.610;2022-08-21T06:50:36;16.80;99.90
16384;DHT22;8301;51.440;6.610;2022-08-21T06:55:37;16.80;99.90
16384;DHT22;8301;51.440;6.610;2022-08-21T06:58:06;16.90;99.90
16384;DHT22;8301;51.440;6.610;2022-08-21T07:00:36;17.00;99.90
16384;DHT22;8301;51.440;6.610;2022-08-21T07:03:03;17.00;99.90
16384;DHT22;8301;51.440;6.610;2022-08-21T07:05:30;17.10;99.90
16384;DHT22;8301;51.440;6.610;2022-08-21T07:07:59;17.10;99.90
16384;DHT22;8301;51.440;6.610;2022-08-21T07:10:28;17.30;99.90
16384;DHT22;8301;51.440;6.610;2022-08-21T07:12:59;17.30;99.90
16384;DHT22;8301;51.440;6.610;2022-08-21T07:15:32;17.40;99.90
16384;DHT22;8301;51.440;6.610;2022-08-21T07:17:59;17.60;99.90
16384;DHT22;8301;51.440;6.610;2022-08-21T07:20:27;17.60;99.90
16384;DHT22;8301;51.440;6.610;2022-08-21T07:25:26;17.70;99.90
16384;DHT22;8301;51.440;6.610;2022-08-21T07:27:53;17.80;99.90
16384;DHT22;8301;51.440;6.610;2022-08-21T07:30:20;17.80;99.90
16384;DHT22;8301;51.440;6.610;2022-08-21T07:32:50;17.90;99.90
16384;DHT22;8301;51.440;6.610;2022-08-21T07:35:17;17.90;99.90
16384;DHT22;8301;51.440;6.610;2022-08-21T07:37:44;17.90;99.90
16384;DHT22;8301;51.440;6.610;2022-08-21T07:40:11;17.90;99.90
16384;DHT22;8301;51.440;6.610;2022-08-21T07:42:44;18.00;99.90
16384;DHT22;8301;51.440;6.610;2022-08-21T07:45:07;18.10;99.90
16384;DHT22;8301;51.440;6.610;2022-08-21T07:47:46;18.10;99.90
16384;DHT22;8301;51.440;6.610;2022-08-21T07:50:14;18.00;99.90
16384;DHT22;8301;51.440;6.610;2022-08-21T07:52:41;18.10;99.90
16384;DHT22;8301;51.440;6.610;2022-08-21T07:55:15;18.10;99.90
16384;DHT22;8301;51.440;6.610;2022-08-21T07:57:43;18.20;99.90
16384;DHT22;8301;51.440;6.610;2022-08-21T08:00:11;18.30;99.90
16384;DHT22;8301;51.440;6.610;2022-08-21T08:02:38;18.20;99.90
16384;DHT22;8301;51.440;6.610;2022-08-21T08:05:07;18.30;99.90
16384;DHT22;8301;51.440;6.610;2022-08-21T08:07:35;18.40;99.90
16384;DHT22;8301;51.440;6.610;2022-08-21T08:10:02;18.50;99.90
16384;DHT22;8301;51.440;6.610;2022-08-21T08:12:29;18.50;99.90
16384;DHT22;8301;51.440;6.610;2022-08-21T08:14:57;18.50;99.90
16384;DHT22;8301;51.440;6.610;2022-08-21T08:17:24;18.60;99.90
16384;DHT22;8301;51.440;6.610;2022-08-21T08:19:51;18.70;99.90
16384;DHT22;8301;51.440;6.610;2022-08-21T08:22:20;18.90;99.90
16384;DHT22;8301;51.440;6.610;2022-08-21T08:24:50;19.00;99.90
16384;DHT22;8301;51.440;6.610;2022-08-21T08:27:17;19.10;99.90
16384;DHT22;8301;51.440;6.610;2022-08-21T08:29:44;19.30;99.90
16384;DHT22;8301;51.440;6.610;2022-08-21T08:32:11;19.40;99.90
16384;DHT22;8301;51.440;6.610;2022-08-21T08:34:38;19.40;99.90
16384;DHT22;8301;51.440;6.610;2022-08-21T08:37:06;19.50;99.90
16384;DHT22;8301;51.440;6.610;2022-08-21T08:39:33;19.70;99.90
16384;DHT22;8301;51.440;6.610;2022-08-21T08:42:11;19.80;99.90
16384;DHT22;8301;51.440;6.610;2022-08-21T08:44:39;19.90;99.90
16384;DHT22;8301;51.440;6.610;2022-08-21T08:47:09;20.00;99.90
16384;DHT22;8301;51.440;6.610;2022-08-21T08:49:38;19.90;99.90
16384;DHT22;8301;51.440;6.610;2022-08-21T08:54:44;19.80;99.90
16384;DHT22;8301;51.440;6.610;2022-08-21T08:57:16;19.90;99.90
16384;DHT22;8301;51.440;6.610;2022-08-21T08:59:53;20.00;99.90
16384;DHT22;8301;51.440;6.610;2022-08-21T09:02:21;20.30;99.90
16384;DHT22;8301;51.440;6.610;2022-08-21T09:04:50;20.50;99.90
16384;DHT22;8301;51.440;6.610;2022-08-21T09:07:36;20.60;99.90
16384;DHT22;8301;51.440;6.610;2022-08-21T09:10:20;20.70;99.90
16384;DHT22;8301;51.440;6.610;2022-08-21T09:15:24;21.00;99.90
16384;DHT22;8301;51.440;6.610;2022-08-21T09:18:40;21.40;99.90
16384;DHT22;8301;51.440;6.610;2022-08-21T09:25:51;22.10;99.90
16384;DHT22;8301;51.440;6.610;2022-08-21T09:28:23;21.90;99.90
16384;DHT22;8301;51.440;6.610;2022-08-21T09:30:49;22.00;99.90
16384;DHT22;8301;51.440;6.610;2022-08-21T09:33:23;22.30;99.90
16384;DHT22;8301;51.440;6.610;2022-08-21T09:38:28;22.40;99.90
16384;DHT22;8301;51.440;6.610;2022-08-21T09:41:00;22.80;99.90
16384;DHT22;8301;51.440;6.610;2022-08-21T09:43:26;22.60;99.90
16384;DHT22;8301;51.440;6.610;2022-08-21T09:48:44;22.80;99.90
16384;DHT22;8301;51.440;6.610;2022-08-21T09:51:11;23.00;99.90
16384;DHT22;8301;51.440;6.610;2022-08-21T09:53:38;23.00;99.90
16384;DHT22;8301;51.440;6.610;2022-08-21T09:59:14;23.10;99.90
16384;DHT22;8301;51.440;6.610;2022-08-21T10:01:42;23.10;99.90
16384;DHT22;8301;51.440;6.610;2022-08-21T10:04:10;23.20;99.90
16384;DHT22;8301;51.440;6.610;2022-08-21T10:06:39;23.10;99.90
16384;DHT22;8301;51.440;6.610;2022-08-21T10:09:18;23.10;99.90
16384;DHT22;8301;51.440;6.610;2022-08-21T10:11:58;23.40;99.90
16384;DHT22;8301;51.440;6.610;2022-08-21T10:17:12;24.10;99.90
16384;DHT22;8301;51.440;6.610;2022-08-21T10:19:47;23.90;99.90
16384;DHT22;8301;51.440;6.610;2022-08-21T10:22:06;23.90;99.90
16384;DHT22;8301;51.440;6.610;2022-08-21T10:29:44;24.00;99.90
16384;DHT22;8301;51.440;6.610;2022-08-21T10:43:02;23.90;99.90
16384;DHT22;8301;51.440;6.610;2022-08-21T10:47:55;23.70;99.90
16384;DHT22;8301;51.440;6.610;2022-08-21T10:55:40;23.90;99.90
16384;DHT22;8301;51.440;6.610;2022-08-21T10:58:10;24.00;99.90
16384;DHT22;8301;51.440;6.610;2022-08-21T11:00:41;24.00;99.90
16384;DHT22;8301;51.440;6.610;2022-08-21T11:03:16;24.10;99.90
16384;DHT22;8301;51.440;6.610;2022-08-21T11:05:46;24.10;99.90
16384;DHT22;8301;51.440;6.610;2022-08-21T11:16:31;24.30;99.90
16384;DHT22;8301;51.440;6.610;2022-08-21T11:19:05;24.40;99.90
16384;DHT22;8301;51.440;6.610;2022-08-21T11:21:39;24.40;99.90
16384;DHT22;8301;51.440;6.610;2022-08-21T11:26:39;24.80;99.90
16384;DHT22;8301;51.440;6.610;2022-08-21T11:29:23;25.10;99.90
16384;DHT22;8301;51.440;6.610;2022-08-21T11:40:04;25.60;99.90
16384;DHT22;8301;51.440;6.610;2022-08-21T11:45:33;25.20;99.90
16384;DHT22;8301;51.440;6.610;2022-08-21T11:50:48;25.20;99.90
16384;DHT22;8301;51.440;6.610;2022-08-21T11:58:39;25.60;99.90
16384;DHT22;8301;51.440;6.610;2022-08-21T12:01:15;25.60;99.90
16384;DHT22;8301;51.440;6.610;2022-08-21T12:03:41;25.50;99.90
16384;DHT22;8301;51.440;6.610;2022-08-21T12:06:07;25.60;99.90
16384;DHT22;8301;51.440;6.610;2022-08-21T12:08:34;25.30;99.90
16384;DHT22;8301;51.440;6.610;2022-08-21T12:11:08;25.60;99.90
16384;DHT22;8301;51.440;6.610;2022-08-21T12:13:32;25.30;99.90
16384;DHT22;8301;51.440;6.610;2022-08-21T12:16:10;25.40;99.90
16384;DHT22;8301;51.440;6.610;2022-08-21T12:18:37;25.20;99.90
16384;DHT22;8301;51.440;6.610;2022-08-21T12:21:19;25.20;99.90
16384;DHT22;8301;51.440;6.610;2022-08-21T12:23:49;25.20;99.90
16384;DHT22;8301;51.440;6.610;2022-08-21T12:26:23;25.40;99.90
16384;DHT22;8301;51.440;6.610;2022-08-21T12:28:51;25.40;99.90
16384;DHT22;8301;51.440;6.610;2022-08-21T12:31:26;25.40;99.90
16384;DHT22;8301;51.440;6.610;2022-08-21T12:33:54;25.30;99.90
16384;DHT22;8301;51.440;6.610;2022-08-21T12:36:42;25.30;99.90
16384;DHT22;8301;51.440;6.610;2022-08-21T12:39:11;25.40;99.90
16384;DHT22;8301;51.440;6.610;2022-08-21T12:41:52;25.60;99.90
16384;DHT22;8301;51.440;6.610;2022-08-21T12:44:17;25.60;99.90
16384;DHT22;8301;51.440;6.610;2022-08-21T12:46:46;25.50;99.90
16384;DHT22;8301;51.440;6.610;2022-08-21T12:49:19;25.70;99.90
16384;DHT22;8301;51.440;6.610;2022-08-21T12:52:01;25.80;99.90
16384;DHT22;8301;51.440;6.610;2022-08-21T12:54:25;26.00;99.90
16384;DHT22;8301;51.440;6.610;2022-08-21T12:57:01;26.20;99.90
16384;DHT22;8301;51.440;6.610;2022-08-21T12:59:24;25.70;99.90
16384;DHT22;8301;51.440;6.610;2022-08-21T13:01:55;26.10;99.90
16384;DHT22;8301;51.440;6.610;2022-08-21T13:04:29;25.60;99.90
16384;DHT22;8301;51.440;6.610;2022-08-21T13:06:56;26.20;99.90
16384;DHT22;8301;51.440;6.610;2022-08-21T13:09:26;26.00;99.90
16384;DHT22;8301;51.440;6.610;2022-08-21T13:11:53;26.40;99.90
16384;DHT22;8301;51.440;6.610;2022-08-21T13:16:52;26.30;99.90
16384;DHT22;8301;51.440;6.610;2022-08-21T13:19:17;26.30;99.90
16384;DHT22;8301;51.440;6.610;2022-08-21T13:21:45;26.40;99.90
16384;DHT22;8301;51.440;6.610;2022-08-21T13:26:40;26.80;99.90
16384;DHT22;8301;51.440;6.610;2022-08-21T13:29:12;26.30;99.90
16384;DHT22;8301;51.440;6.610;2022-08-21T13:31:37;26.20;99.90
16384;DHT22;8301;51.440;6.610;2022-08-21T13:34:05;26.50;99.90
16384;DHT22;8301;51.440;6.610;2022-08-21T13:36:35;26.50;99.90
16384;DHT22;8301;51.440;6.610;2022-08-21T13:39:03;26.40;99.90
16384;DHT22;8301;51.440;6.610;2022-08-21T13:41:35;26.40;99.90
16384;DHT22;8301;51.440;6.610;2022-08-21T13:44:06;26.30;99.90
16384;DHT22;8301;51.440;6.610;2022-08-21T13:46:33;26.20;99.90
16384;DHT22;8301;51.440;6.610;2022-08-21T13:51:34;25.70;99.90
16384;DHT22;8301;51.440;6.610;2022-08-21T13:54:01;25.70;99.90
16384;DHT22;8301;51.440;6.610;2022-08-21T13:56:43;25.60;99.90
16384;DHT22;8301;51.440;6.610;2022-08-21T13:58:57;25.20;99.90
16384;DHT22;8301;51.440;6.610;2022-08-21T14:06:38;24.90;99.90
16384;DHT22;8301;51.440;6.610;2022-08-21T14:09:09;24.90;99.90
16384;DHT22;8301;51.440;6.610;2022-08-21T14:11:42;25.00;99.90
16384;DHT22;8301;51.440;6.610;2022-08-21T14:14:22;25.30;99.90
16384;DHT22;8301;51.440;6.610;2022-08-21T14:16:43;25.60;99.90
16384;DHT22;8301;51.440;6.610;2022-08-21T14:19:17;26.00;99.90
16384;DHT22;8301;51.440;6.610;2022-08-21T14:21:44;26.30;99.90
16384;DHT22;8301;51.440;6.610;2022-08-21T14:29:13;26.60;99.90
16384;DHT22;8301;51.440;6.610;2022-08-21T14:31:40;27.00;99.90
16384;DHT22;8301;51.440;6.610;2022-08-21T14:34:11;26.80;99.90
16384;DHT22;8301;51.440;6.610;2022-08-21T14:36:39;26.50;99.90
16384;DHT22;8301;51.440;6.610;2022-08-21T14:39:10;26.30;99.90
16384;DHT22;8301;51.440;6.610;2022-08-21T14:41:37;26.20;99.90
16384;DHT22;8301;51.440;6.610;2022-08-21T14:44:04;26.20;99.90
16384;DHT22;8301;51.440;6.610;2022-08-21T14:49:02;26.50;99.90
16384;DHT22;8301;51.440;6.610;2022-08-21T14:51:35;26.50;99.90
16384;DHT22;8301;51.440;6.610;2022-08-21T14:54:08;26.30;99.90
16384;DHT22;8301;51.440;6.610;2022-08-21T14:56:41;26.30;99.90
16384;DHT22;8301;51.440;6.610;2022-08-21T14:59:09;26.10;99.90
16384;DHT22;8301;51.440;6.610;2022-08-21T15:01:39;26.00;99.90
16384;DHT22;8301;51.440;6.610;2022-08-21T15:04:06;26.10;99.90
16384;DHT22;8301;51.440;6.610;2022-08-21T15:06:32;26.20;99.90
16384;DHT22;8301;51.440;6.610;2022-08-21T15:09:01;25.90;99.90
16384;DHT22;8301;51.440;6.610;2022-08-21T15:11:33;26.10;99.90
16384;DHT22;8301;51.440;6.610;2022-08-21T15:14:02;25.90;99.90
16384;DHT22;8301;51.440;6.610;2022-08-21T15:16:30;25.90;99.90
16384;DHT22;8301;51.440;6.610;2022-08-21T15:18:58;26.10;99.90
16384;DHT22;8301;51.440;6.610;2022-08-21T15:21:27;25.90;99.90
16384;DHT22;8301;51.440;6.610;2022-08-21T15:23:53;25.80;99.90
16384;DHT22;8301;51.440;6.610;2022-08-21T15:26:21;25.90;99.90
16384;DHT22;8301;51.440;6.610;2022-08-21T15:28:49;26.10;99.90
16384;DHT22;8301;51.440;6.610;2022-08-21T15:31:17;26.00;99.90
16384;DHT22;8301;51.440;6.610;2022-08-21T15:33:43;26.00;99.90
16384;DHT22;8301;51.440;6.610;2022-08-21T15:36:11;26.10;99.90
16384;DHT22;8301;51.440;6.610;2022-08-21T15:38:38;26.20;99.90
16384;DHT22;8301;51.440;6.610;2022-08-21T15:41:04;26.20;99.90
16384;DHT22;8301;51.440;6.610;2022-08-21T15:46:06;25.80;99.90
16384;DHT22;8301;51.440;6.610;2022-08-21T15:48:36;25.70;99.90
16384;DHT22;8301;51.440;6.610;2022-08-21T15:51:03;25.70;99.90
16384;DHT22;8301;51.440;6.610;2022-08-21T15:53:30;25.70;99.90
16384;DHT22;8301;51.440;6.610;2022-08-21T15:56:00;25.70;99.90
16384;DHT22;8301;51.440;6.610;2022-08-21T15:58:40;25.50;99.90
16384;DHT22;8301;51.440;6.610;2022-08-21T16:01:07;25.40;99.90
16384;DHT22;8301;51.440;6.610;2022-08-21T16:03:34;25.10;99.90
16384;DHT22;8301;51.440;6.610;2022-08-21T16:06:01;25.00;99.90
16384;DHT22;8301;51.440;6.610;2022-08-21T16:08:27;24.90;99.90
16384;DHT22;8301;51.440;6.610;2022-08-21T16:10:55;24.90;99.90
16384;DHT22;8301;51.440;6.610;2022-08-21T16:13:27;25.00;99.90
16384;DHT22;8301;51.440;6.610;2022-08-21T16:31:31;24.70;99.90
16384;DHT22;8301;51.440;6.610;2022-08-21T16:36:33;24.60;99.90
16384;DHT22;8301;51.440;6.610;2022-08-21T16:41:40;24.60;99.90
16384;DHT22;8301;51.440;6.610;2022-08-21T16:54:34;24.60;99.90
16384;DHT22;8301;51.440;6.610;2022-08-21T16:57:01;24.70;99.90
16384;DHT22;8301;51.440;6.610;2022-08-21T16:59:28;24.50;99.90
16384;DHT22;8301;51.440;6.610;2022-08-21T17:01:57;24.50;99.90
16384;DHT22;8301;51.440;6.610;2022-08-21T17:04:23;24.50;99.90
16384;DHT22;8301;51.440;6.610;2022-08-21T17:06:54;24.50;99.90
16384;DHT22;8301;51.440;6.610;2022-08-21T17:09:28;24.40;99.90
16384;DHT22;8301;51.440;6.610;2022-08-21T17:11:56;24.30;99.90
16384;DHT22;8301;51.440;6.610;2022-08-21T17:14:23;24.20;99.90
16384;DHT22;8301;51.440;6.610;2022-08-21T17:16:51;24.20;99.90
16384;DHT22;8301;51.440;6.610;2022-08-21T17:19:22;24.10;99.90
16384;DHT22;8301;51.440;6.610;2022-08-21T17:21:51;24.00;99.90
16384;DHT22;8301;51.440;6.610;2022-08-21T17:24:17;23.80;99.90
16384;DHT22;8301;51.440;6.610;2022-08-21T17:26:44;23.80;99.90
16384;DHT22;8301;51.440;6.610;2022-08-21T17:29:11;23.90;99.90
16384;DHT22;8301;51.440;6.610;2022-08-21T17:31:41;23.90;99.90
16384;DHT22;8301;51.440;6.610;2022-08-21T17:34:08;23.70;99.90
16384;DHT22;8301;51.440;6.610;2022-08-21T17:36:36;23.60;99.90
16384;DHT22;8301;51.440;6.610;2022-08-21T17:39:09;23.50;99.90
16384;DHT22;8301;51.440;6.610;2022-08-21T17:41:43;23.50;99.90
16384;DHT22;8301;51.440;6.610;2022-08-21T17:44:14;23.40;99.90
16384;DHT22;8301;51.440;6.610;2022-08-21T17:46:42;23.40;99.90
16384;DHT22;8301;51.440;6.610;2022-08-21T17:49:09;23.30;99.90
16384;DHT22;8301;51.440;6.610;2022-08-21T17:51:36;23.10;99.90
16384;DHT22;8301;51.440;6.610;2022-08-21T18:01:58;22.90;99.90
16384;DHT22;8301;51.440;6.610;2022-08-21T18:04:27;22.80;99.90
16384;DHT22;8301;51.440;6.610;2022-08-21T18:06:55;22.70;99.90
16384;DHT22;8301;51.440;6.610;2022-08-21T18:09:27;22.70;99.90
16384;DHT22;8301;51.440;6.610;2022-08-21T18:11:59;22.60;99.90
16384;DHT22;8301;51.440;6.610;2022-08-21T18:14:27;22.50;99.90
16384;DHT22;8301;51.440;6.610;2022-08-21T18:16:55;22.50;99.90
16384;DHT22;8301;51.440;6.610;2022-08-21T18:19:22;22.40;99.90
16384;DHT22;8301;51.440;6.610;2022-08-21T18:21:53;22.30;99.90